^^
Station Historical Data
Daily Summary for July 2, 2017 Units:  English    Metric   Both
« Previous Day
Next Day »
Daily Weekly Monthly Yearly Custom
  High: Low: Average:
Temperature: 88.1 °F 69.6 °F 78.5 °F
Dew Point: 69.6 °F 64.0 °F 67.2 °F
Humidity: 97% 46% 71%
Wind Speed: 6.0mph 0.0mph 1.3mph
Wind Gust: 13.0mph - -
Wind- - SW
Pressure: 29.99 in 29.90 in -
Precipitation: 0.00 in    
Historical Graphs
 
 
Tabular Data for July 2, 2017
Time Temperature Dew Point Pressure Wind Wind Speed Wind Gust Humidity Rainfall Rate (Hourly) Conditions
00:00 70.0 °F 68.8 °F 29.91 in SSW 1.0 mph 4.0 mph 96% 0.00 in RA
00:15 70.1 °F 68.9 °F 29.92 in Calm   4.0 mph 96% 0.00 in BKN
00:30 70.2 °F 69.0 °F 29.92 in Calm   3.0 mph 96% 0.00 in BKN
00:45 70.1 °F 68.9 °F 29.92 in SSW 3.0 mph 6.0 mph 96% 0.00 in BKN
01:00 70.0 °F 68.8 °F 29.91 in SW 1.0 mph 6.0 mph 96% 0.00 in BKN
01:45 70.1 °F 68.9 °F 29.91 in SSW 2.0 mph 6.0 mph 96% 0.00 in OVC
02:00 70.1 °F 68.9 °F 29.91 in SW 3.0 mph 8.0 mph 96% 0.00 in OVC
02:15 70.1 °F 68.9 °F 29.90 in SW 3.0 mph 7.0 mph 96% 0.00 in BKN
02:30 70.0 °F 68.8 °F 29.90 in SW 1.0 mph 5.0 mph 96% 0.00 in BKN
02:45 70.0 °F 69.1 °F 29.90 in Calm   4.0 mph 97% 0.00 in BKN
03:00 70.0 °F 69.1 °F 29.90 in Calm   1.0 mph 97% 0.00 in BKN
03:15 70.2 °F 69.3 °F 29.90 in SSW 1.0 mph 2.0 mph 97% 0.00 in OVC
03:30 70.4 °F 69.5 °F 29.90 in Calm   4.0 mph 97% 0.00 in OVC
03:45 70.4 °F 69.5 °F 29.91 in Calm   4.0 mph 97% 0.00 in OVC
04:00 70.4 °F 69.5 °F 29.92 in Calm   4.0 mph 97% 0.00 in OVC
04:15 70.3 °F 69.4 °F 29.92 in SSW 1.0 mph 5.0 mph 97% 0.00 in OVC
04:30 70.3 °F 69.4 °F 29.92 in SW 2.0 mph 5.0 mph 97% 0.00 in OVC
04:45 70.2 °F 69.3 °F 29.93 in SW 1.0 mph 6.0 mph 97% 0.00 in OVC
05:00 70.2 °F 69.3 °F 29.93 in SW 2.0 mph 6.0 mph 97% 0.00 in OVC
05:15 70.1 °F 69.2 °F 29.93 in SW 2.0 mph 4.0 mph 97% 0.00 in OVC
05:30 70.1 °F 69.2 °F 29.94 in Calm   6.0 mph 97% 0.00 in OVC
05:45 70.0 °F 69.1 °F 29.94 in Calm   6.0 mph 97% 0.00 in OVC
06:00 70.0 °F 69.1 °F 29.95 in WSW 1.0 mph 6.0 mph 97% 0.00 in OVC
06:15 69.9 °F 69.0 °F 29.96 in SW 2.0 mph 5.0 mph 97% 0.00 in CLR
06:30 69.8 °F 68.9 °F 29.96 in Calm   4.0 mph 97% 0.00 in CLR
06:45 69.6 °F 68.7 °F 29.96 in Calm   4.0 mph 97% 0.00 in CLR
07:00 69.6 °F 68.7 °F 29.97 in SW 1.0 mph 3.0 mph 97% 0.00 in CLR
07:30 69.6 °F 68.7 °F 29.98 in Calm   4.0 mph 97% 0.00 in FEW
07:45 70.2 °F 69.4 °F 29.98 in Calm   4.0 mph 97% 0.00 in FEW
08:00 71.0 °F 69.5 °F 29.98 in Calm   6.0 mph 95% 0.00 in FEW
08:15 72.4 °F 68.6 °F 29.99 in SW 1.0 mph 8.0 mph 88% 0.00 in CLR
08:30 74.0 °F 69.6 °F 29.99 in SW 1.0 mph 6.0 mph 86% 0.00 in CLR
08:45 75.3 °F 68.3 °F 29.99 in ESE 1.0 mph 6.0 mph 79% 0.00 in CLR
09:00 76.0 °F 67.9 °F 29.99 in Calm   6.0 mph 76% 0.00 in CLR
09:15 76.5 °F 68.0 °F 29.99 in Calm   6.0 mph 75% 0.00 in CLR
09:30 77.2 °F 67.5 °F 29.99 in West 2.0 mph 5.0 mph 72% 0.00 in CLR
09:45 78.0 °F 68.2 °F 29.99 in SSW 1.0 mph 6.0 mph 72% 0.00 in CLR
10:00 78.2 °F 66.8 °F 29.99 in NW 2.0 mph 8.0 mph 68% 0.00 in CLR
10:15 79.0 °F 67.1 °F 29.99 in NW 2.0 mph 6.0 mph 67% 0.00 in CLR
10:30 79.3 °F 66.5 °F 29.99 in NE 1.0 mph 4.0 mph 65% 0.00 in CLR
10:45 80.4 °F 68.0 °F 29.99 in WNW 1.0 mph 5.0 mph 66% 0.00 in CLR
11:00 81.8 °F 66.6 °F 29.99 in SW 2.0 mph 4.0 mph 60% 0.00 in CLR
11:15 81.8 °F 66.6 °F 29.99 in WNW 1.0 mph 6.0 mph 60% 0.00 in FEW
11:30 82.5 °F 66.2 °F 29.99 in SW 2.0 mph 5.0 mph 58% 0.00 in FEW
11:45 83.0 °F 66.7 °F 29.99 in Calm   7.0 mph 58% 0.00 in FEW
12:00 83.2 °F 64.8 °F 29.99 in WSW 3.0 mph 6.0 mph 54% 0.00 in FEW
12:15 84.3 °F 65.8 °F 29.99 in WSW 2.0 mph 5.0 mph 54% 0.00 in FEW
12:30 84.3 °F 64.8 °F 29.98 in SW 2.0 mph 7.0 mph 52% 0.00 in FEW
12:45 84.4 °F 65.4 °F 29.98 in SW 3.0 mph 9.0 mph 53% 0.00 in FEW
13:00 84.5 °F 67.1 °F 29.98 in WSW 1.0 mph 6.0 mph 56% 0.00 in FEW
13:15 85.1 °F 65.5 °F 29.98 in WSW 2.0 mph 9.0 mph 52% 0.00 in FEW
13:30 85.4 °F 65.8 °F 29.97 in Calm   7.0 mph 52% 0.00 in FEW
14:00 85.5 °F 66.4 °F 29.97 in WSW 1.0 mph 7.0 mph 53% 0.00 in FEW
14:15 86.5 °F 66.2 °F 29.97 in SSW 5.0 mph 7.0 mph 51% 0.00 in FEW
14:30 86.6 °F 64.6 °F 29.97 in SSW 1.0 mph 9.0 mph 48% 0.00 in FEW
14:45 87.5 °F 65.4 °F 29.96 in SW 1.0 mph 6.0 mph 48% 0.00 in FEW
15:00 87.6 °F 65.5 °F 29.96 in WSW 5.0 mph 10.0 mph 48% 0.00 in FEW
15:15 87.3 °F 64.0 °F 29.96 in SW 2.0 mph 8.0 mph 46% 0.00 in FEW
15:30 87.9 °F 64.5 °F 29.95 in WSW 3.0 mph 12.0 mph 46% 0.00 in FEW
15:45 87.8 °F 65.1 °F 29.95 in SW 2.0 mph 13.0 mph 47% 0.00 in FEW
16:15 87.9 °F 64.5 °F 29.94 in SSW 5.0 mph 9.0 mph 46% 0.00 in SCT
16:30 87.6 °F 64.9 °F 29.94 in WSW 3.0 mph 9.0 mph 47% 0.00 in SCT
16:45 87.5 °F 66.0 °F 29.93 in SW 1.0 mph 7.0 mph 49% 0.00 in SCT
17:00 87.4 °F 64.7 °F 29.93 in SW 6.0 mph 11.0 mph 47% 0.00 in SCT
17:15 87.9 °F 66.9 °F 29.93 in SW 1.0 mph 12.0 mph 50% 0.00 in FEW
17:30 88.1 °F 66.6 °F 29.93 in SW 2.0 mph 8.0 mph 49% 0.00 in FEW
17:45 87.3 °F 65.8 °F 29.93 in SW 3.0 mph 10.0 mph 49% 0.00 in FEW
18:00 87.9 °F 66.9 °F 29.93 in SW 1.0 mph 7.0 mph 50% 0.00 in FEW
18:15 86.2 °F 66.0 °F 29.93 in SW 3.0 mph 9.0 mph 51% 0.00 in SCT
18:30 86.1 °F 66.4 °F 29.93 in SSW 1.0 mph 10.0 mph 52% 0.00 in SCT
18:45 85.6 °F 65.4 °F 29.93 in SSW 3.0 mph 10.0 mph 51% 0.00 in SCT
19:00 84.2 °F 65.2 °F 29.94 in SSW 2.0 mph 13.0 mph 53% 0.00 in SCT
19:15 84.1 °F 65.6 °F 29.94 in SSW 1.0 mph 9.0 mph 54% 0.00 in SCT
19:30 84.1 °F 66.2 °F 29.94 in SSW 3.0 mph 9.0 mph 55% 0.00 in SCT
19:45 84.7 °F 66.2 °F 29.94 in SSW 2.0 mph 12.0 mph 54% 0.00 in SCT
20:00 84.2 °F 66.3 °F 29.94 in SSW 1.0 mph 8.0 mph 55% 0.00 in SCT
20:15 82.7 °F 66.4 °F 29.94 in SSW 1.0 mph 6.0 mph 58% 0.00 in FEW
20:30 81.9 °F 66.2 °F 29.94 in Calm   9.0 mph 59% 0.00 in FEW
20:45 81.4 °F 65.7 °F 29.94 in Calm   5.0 mph 59% 0.00 in FEW
21:00 80.8 °F 65.7 °F 29.95 in SW 1.0 mph 4.0 mph 60% 0.00 in FEW
21:15 79.9 °F 65.7 °F 29.95 in Calm   2.0 mph 62% 0.00 in CLR
21:30 78.8 °F 65.6 °F 29.95 in Calm   4.0 mph 64% 0.00 in CLR
21:45 78.7 °F 65.5 °F 29.96 in South 1.0 mph 3.0 mph 64% 0.00 in CLR
22:00 79.1 °F 65.9 °F 29.96 in Calm   5.0 mph 64% 0.00 in CLR
22:15 79.2 °F 66.0 °F 29.96 in SW 1.0 mph 5.0 mph 64% 0.00 in CLR
22:30 79.0 °F 66.2 °F 29.96 in Calm   2.0 mph 65% 0.00 in CLR
23:00 78.4 °F 66.5 °F 29.96 in Calm   2.0 mph 67% 0.00 in CLR
23:15 78.4 °F 66.1 °F 29.95 in Calm   3.0 mph 66% 0.00 in CLR
23:30 78.2 °F 66.3 °F 29.95 in SW 1.0 mph 5.0 mph 67% 0.00 in CLR
23:45 77.9 °F 66.0 °F 29.96 in WSW 1.0 mph 3.0 mph 67% 0.00 in CLR
TarryTown NY Weather
Compliments of Weather Underground - 1.5 mb